Billings, MT

10:59 AM MDT on September 02, 2014 (GMT -0600)
Downtown Billings | Change Station
CLOSE
Current Station
Personal Weather Station
Location: Billings, MT
Elevation: 3127 ft
Nearby Weather Stations

Elev 3127 ft 45.78 °N, 108.50 °W | Updated 50 minutes ago

Scattered Clouds
Scattered Clouds
62.4 °F
Feels Like 62.4 °F
N
2.9
Wind Variable Wind from WSW
Gusts 5.1 mph

Today
High -- | Low -- °F
--% Chance of Precip.
Yesterday
High -- | Low -- °F
Precip. -- in
6:36 AM 7:49 PM
First Quarter, 53% visible
Pressure 29.87 in
Visibility 10.0 miles
Clouds Few 11000 ft
Scattered Clouds 25000 ft
Dew Point 47 °F
Humidity 57%
Rainfall -999.00 in
Snow Depth Not available.
UV 5 out of 12
Pollen 7.80 out of 12
Air Quality Not available.
Flu Activity Not available.
METAR KBIL 021653Z 20003KT 10SM FEW110 SCT250 18/06 A2993 RMK AO2 SLP114 T01830061

More Conditions Fewer Conditions

Pressure 29.87 in
Visibility 10.0 miles
Clouds Few 11000 ft
Scattered Clouds 25000 ft
Dew Point 47 °F
Humidity 57%
Rainfall -999.00 in
Snow Depth Not available.
UV 5 out of 12
Pollen 7.80 out of 12
Air Quality Not available.
Flu Activity Not available.
METAR KBIL 021653Z 20003KT 10SM FEW110 SCT250 18/06 A2993 RMK AO2 SLP114 T01830061

More Conditions Fewer Conditions

10-Day Weather Forecast

Almanac

Astronomy

Sep. 02, 2014 Rise Set
Actual Time 6:36 AM MDT 7:49 PM MDT
Civil Twilight 6:05 AM MDT 8:20 PM MDT
Nautical Twilight 5:28 AM MDT 8:57 PM MDT
Astronomical Twilight 4:49 AM MDT 9:36 PM MDT
Moon 2:45 PM MDT No Moon Set
Length of Visible Light 14h 14m
Length of Day
13h 13m
Tomorrow will be 3m 7s shorter.
First Quarter, 53% of the Moon is Illuminated
Today
First Quarter
Sep 8
Full
Sep 15
Last Quarter
Sep 24
New
Oct 1
First Quarter

Today's Extremes

State Highs State Lows

Community

WunderPhotos

Upload Photos

1,749,716 photos uploaded!

WunderBlogs® & News

Nearby

Snow Depth

Station Depth Elevation
Cole Creek 1 in 7850 ft
Burnt Mountain 0 in 5880 ft
Placer Basin 0 in 8830 ft
Crystal Lake 0 in 6050 ft
White Mill 1 in 8700 ft

Earthquake Activity

City Distance Mag. Time & Date
No recent earthquake activity has been reported nearby.
Minimum magnitude displayed is 2.5.

Coastal Water Temperatures

Place Temperature
No Stations Reporting

Nearby Weather Stations